• Join FlightAware (Why Join?)
  • Login
  • US Flag 
09:36AM EDT


 

Airport Tracker/Info


-or-


 

Live Flight TrackerFlight Track Log ✈ N1173X ✈ 03-May-2013 ✈ KHKY - KAVL

Flight Track Log - Related Links

Times and Time Zones

All times are in EDT time to prevent confusion due to time zone crossing. See the N1173X flight status page for this flight to view local times or setup timezone preferences in your user account.

Time Position Orientation Groundspeed Altitude Reporting Facility
EDT Latitude Longitude Course Direction KTS MPH feet Rate Location/Type
12:23PM 35.7522 -81.3878 44° Northeast 109 125 2,000  Level Atlanta Center
12:24PM 35.7508 -81.4236 267° West 61 70 2,700 660 Climbing Atlanta Center
12:25PM 35.7475 -81.4569 263° West 89 102 3,400 660 Climbing Atlanta Center
12:26PM 35.7461 -81.4903 267° West 107 123 4,100 660 Climbing Atlanta Center
12:27PM 35.7342 -81.5189 243° Southwest 101 116 4,800 600 Climbing Atlanta Center
12:28PM 35.7200 -81.5500 241° Southwest 106 122 5,300 480 Climbing Atlanta Center
12:29PM 35.7083 -81.5811 245° Southwest 106 122 5,800 480 Climbing Atlanta Center
12:30PM 35.6964 -81.6119 245° Southwest 106 122 6,300 420 Climbing Atlanta Center
12:31PM 35.6844 -81.6406 243° Southwest 100 115 6,700 300 Climbing Atlanta Center
12:32PM 35.6703 -81.6692 239° Southwest 100 115 7,000 120 Climbing Atlanta Center
12:33PM 35.6544 -81.7053 242° Southwest 100 115 7,000  Level Atlanta Center
12:34PM 35.6422 -81.7286 237° Southwest 106 122 7,000  Level Atlanta Center
12:35PM 35.6283 -81.7647 245° Southwest 106 122 7,000  Level Atlanta Center
12:36PM 35.6122 -81.7983 239° Southwest 116 133 7,000  Level Atlanta Center
12:37PM 35.5961 -81.8347 241° Southwest 116 133 7,000  Level Atlanta Center
12:38PM 35.5822 -81.8683 243° Southwest 121 139 7,000  Level Atlanta Center
12:39PM 35.5661 -81.9044 241° Southwest 121 139 7,000  Level Atlanta Center
12:40PM 35.5542 -81.9378 246° West 121 139 7,000  Level Atlanta Center
12:41PM 35.5361 -81.9742 239° Southwest 121 139 7,000  Level Atlanta Center
12:42PM 35.5219 -82.0103 244° Southwest 121 139 7,000  Level Atlanta Center
12:43PM 35.5058 -82.0464 241° Southwest 121 139 7,000  Level Atlanta Center
12:44PM 35.4897 -82.0772 237° Southwest 121 139 7,000  Level Atlanta Center
12:45PM 35.4758 -82.1133 245° Southwest 121 139 7,000  Level Atlanta Center
12:46PM 35.4617 -82.1494 244° Southwest 121 139 7,000  Level Atlanta Center
12:47PM 35.4478 -82.1853 245° Southwest 121 139 7,000  Level Atlanta Center
12:48PM 35.4461 -82.2289 267° West 121 139 7,000  Level Atlanta Center
12:49PM 35.4469 -82.2722 271° West 126 145 7,000  Level Atlanta Center
12:50PM 35.4475 -82.3128 271° West 126 145 7,000  Level Atlanta Center
12:51PM 35.4583 -82.3533 288° West 126 145 7,000  Level Atlanta Center
12:52PM 35.4778 -82.3964 299° West 126 145 7,000 -120 Level Atlanta Center
12:53PM 35.4972 -82.4367 301° West 138 159 6,800 -300 Descending Atlanta Center
12:54PM 35.5122 -82.4800 293° West 138 159 6,500 600 Descending Atlanta Center
12:55PM 35.5294 -82.5256 295° West 138 159 8,000 1,500 Climbing Atlanta Center
12:57PM 35.5786 -82.5174 North  Level FlightAware Approximate
01:04PM 35.5957 -82.6094 155° Southeast  Level FlightAware Approximate
01:05PM 35.5673 -82.5932 155° Southeast  Level FlightAware Approximate
01:06PM 35.5378 -82.5833 180° South  Level FlightAware Approximate
01:07PM 35.5084 -82.5709 158° South  Level FlightAware Approximate
01:08PM 35.4794 -82.5564 158° South  Level FlightAware Approximate
01:09PM 35.4504 -82.5418 158° South  Level FlightAware Approximate
01:10PM 35.4333 -82.5333 158° South  Level FlightAware Approximate
01:11PM 35.4362 -82.5418 158° South  Level Estimated
01:12PM 35.4362 -82.5418 158° South  Level Estimated
01:13PM 35.4362 -82.5418 158° South  Level Estimated
01:14PM 35.4362 -82.5418 158° South  Level Estimated
01:15PM 35.4362 -82.5418 158° South  Level Estimated
01:16PM 35.4362 -82.5418 158° South  Level Estimated
01:17PM 35.4362 -82.5418 158° South  Level Estimated
01:18PM 35.4362 -82.5418 158° South  Level Estimated
01:19PM 35.4362 -82.5418 158° South  Level Estimated